createdAt,value
2018-05-18T00:01:26.233Z,8.53
2018-05-18T00:03:54.478Z,9.73
2018-05-18T00:06:22.680Z,9.10
2018-05-18T00:08:51.693Z,9.13
2018-05-18T00:11:20.686Z,8.13
2018-05-18T00:13:48.994Z,8.60
2018-05-18T00:16:17.981Z,8.57
2018-05-18T00:18:46.217Z,8.80
2018-05-18T00:21:14.546Z,8.63
2018-05-18T00:23:42.736Z,8.70
2018-05-18T00:26:10.961Z,8.27
2018-05-18T00:28:39.212Z,8.30
2018-05-18T00:31:07.517Z,8.63
2018-05-18T00:33:36.510Z,8.00
2018-05-18T00:36:04.728Z,8.70
2018-05-18T00:38:32.952Z,8.30
2018-05-18T00:41:01.178Z,6.47
2018-05-18T00:43:29.472Z,7.77
2018-05-18T00:45:57.699Z,7.53
2018-05-18T00:48:25.921Z,8.47
2018-05-18T00:50:54.257Z,8.73
2018-05-18T00:53:22.534Z,9.30
2018-05-18T00:55:51.518Z,8.77
2018-05-18T00:58:19.741Z,8.37
2018-05-18T01:00:47.974Z,8.20
2018-05-18T01:03:16.185Z,8.53
2018-05-18T01:05:44.416Z,8.03
2018-05-18T01:08:12.655Z,8.17
2018-05-18T01:10:40.879Z,9.13
2018-05-18T01:13:09.888Z,9.07
2018-05-18T01:15:38.868Z,6.67
2018-05-18T01:18:07.080Z,8.53
2018-05-18T01:20:35.312Z,8.90
2018-05-18T01:23:03.530Z,9.63
2018-05-18T01:25:31.753Z,9.07
2018-05-18T01:27:59.972Z,8.33
2018-05-18T01:30:28.213Z,8.83
2018-05-18T01:32:57.410Z,8.20
2018-05-18T01:35:26.406Z,9.57
2018-05-18T01:37:56.132Z,9.10
2018-05-18T01:40:24.357Z,9.13
2018-05-18T01:42:52.587Z,7.83
2018-05-18T01:45:20.805Z,8.83
2018-05-18T01:47:49.801Z,8.87
2018-05-18T01:50:18.024Z,9.30
2018-05-18T01:52:46.241Z,8.50
2018-05-18T01:55:14.465Z,8.47
2018-05-18T01:57:42.721Z,8.30
2018-05-18T02:00:10.965Z,8.63
2018-05-18T02:02:39.184Z,9.63
2018-05-18T02:05:07.437Z,9.00
2018-05-18T02:07:36.433Z,9.63
2018-05-18T02:10:05.503Z,7.87
2018-05-18T02:12:33.646Z,9.23
2018-05-18T02:15:01.865Z,8.50
2018-05-18T02:17:30.869Z,10.77
2018-05-18T02:19:59.136Z,8.30
2018-05-18T02:22:28.113Z,9.23
2018-05-18T02:24:57.121Z,8.83
2018-05-18T02:27:26.117Z,8.87
2018-05-18T02:29:55.111Z,8.70
2018-05-18T02:32:23.326Z,9.57
2018-05-18T02:34:52.313Z,9.33
2018-05-18T02:37:20.528Z,8.77
2018-05-18T02:39:48.762Z,8.67
2018-05-18T02:42:17.013Z,8.47
2018-05-18T02:44:45.284Z,9.17
2018-05-18T02:47:14.278Z,8.13
2018-05-18T02:49:42.553Z,8.93
2018-05-18T02:52:10.787Z,8.13
2018-05-18T02:54:39.005Z,9.47
2018-05-18T02:57:07.232Z,8.87
2018-05-18T02:59:36.237Z,8.57
2018-05-18T03:02:05.251Z,8.47
2018-05-18T03:04:34.246Z,5.13
2018-05-18T03:07:02.469Z,8.67
2018-05-18T03:09:30.726Z,8.50
2018-05-18T03:11:59.705Z,8.83
2018-05-18T03:14:27.937Z,9.50
2018-05-18T03:16:56.204Z,8.70
2018-05-18T03:19:25.218Z,9.13
2018-05-18T03:21:54.212Z,8.77
2018-05-18T03:24:22.449Z,9.37
2018-05-18T03:26:50.781Z,9.53
2018-05-18T03:29:18.989Z,9.17
2018-05-18T03:31:47.981Z,8.60
2018-05-18T03:34:16.213Z,8.57
2018-05-18T03:36:44.452Z,9.83
2018-05-18T03:39:12.766Z,8.90
2018-05-18T03:41:41.765Z,8.77
2018-05-18T03:44:10.776Z,9.53
2018-05-18T03:46:39.897Z,9.47
2018-05-18T03:49:08.145Z,10.03
2018-05-18T03:51:36.362Z,9.43
2018-05-18T03:54:05.358Z,9.00
2018-05-18T03:56:34.349Z,10.23
2018-05-18T03:59:02.649Z,8.53
2018-05-18T04:01:43.490Z,8.83
2018-05-18T04:04:23.576Z,9.03
2018-05-18T04:07:03.814Z,9.17
2018-05-18T04:09:32.043Z,10.40
2018-05-18T04:12:00.294Z,10.83
2018-05-18T04:14:28.541Z,11.40
2018-05-18T04:16:57.522Z,9.63
2018-05-18T04:19:25.844Z,10.43
2018-05-18T04:21:54.879Z,11.03
2018-05-18T04:24:23.161Z,8.63
2018-05-18T04:26:51.409Z,10.10
2018-05-18T04:29:19.638Z,10.93
2018-05-18T04:31:47.898Z,9.73
2018-05-18T04:34:16.907Z,8.57
2018-05-18T04:36:45.913Z,10.73
2018-05-18T04:39:14.925Z,10.20
2018-05-18T04:41:43.909Z,8.73
2018-05-18T04:44:12.153Z,10.90
2018-05-18T04:46:40.396Z,10.57
2018-05-18T04:49:09.415Z,11.70
2018-05-18T04:51:37.648Z,10.83
2018-05-18T04:54:05.890Z,10.23
2018-05-18T04:56:34.896Z,11.30
2018-05-18T04:59:03.877Z,9.90
2018-05-18T05:01:32.101Z,10.67
2018-05-18T05:04:01.304Z,9.67
2018-05-18T05:06:30.302Z,10.23
2018-05-18T05:08:59.295Z,9.90
2018-05-18T05:11:27.522Z,11.03
2018-05-18T05:13:55.758Z,11.37
2018-05-18T05:16:23.984Z,10.10
2018-05-18T05:18:52.219Z,10.80
2018-05-18T05:21:20.437Z,10.57
2018-05-18T05:23:49.428Z,11.17
2018-05-18T05:26:17.673Z,10.53
2018-05-18T05:28:46.013Z,10.53
2018-05-18T05:31:14.365Z,11.00
2018-05-18T05:33:42.684Z,8.80
2018-05-18T05:36:10.910Z,5.97
2018-05-18T05:38:39.792Z,10.83
2018-05-18T05:41:08.862Z,9.97
2018-05-18T05:43:37.792Z,9.77
2018-05-18T05:46:06.051Z,9.20
2018-05-18T05:48:34.274Z,10.10
2018-05-18T05:51:02.884Z,10.27
2018-05-18T05:53:31.069Z,10.07
2018-05-18T05:56:00.057Z,9.90
2018-05-18T05:58:28.306Z,11.13
2018-05-18T06:00:56.521Z,9.60
2018-05-18T06:03:24.740Z,10.23
2018-05-18T06:05:53.747Z,9.83
2018-05-18T06:08:22.746Z,10.23
2018-05-18T06:10:51.753Z,10.13
2018-05-18T06:13:19.984Z,9.57
2018-05-18T06:15:48.237Z,8.97
2018-05-18T06:18:17.229Z,7.63
2018-05-18T06:20:46.252Z,9.83
2018-05-18T06:23:15.263Z,9.30
2018-05-18T06:25:44.283Z,8.77
2018-05-18T06:28:12.616Z,8.63
2018-05-18T06:30:40.849Z,8.90
2018-05-18T06:33:09.095Z,9.87
2018-05-18T06:35:37.301Z,9.53
2018-05-18T06:38:05.546Z,8.57
2018-05-18T06:40:33.780Z,8.50
2018-05-18T06:43:02.783Z,8.57
2018-05-18T06:45:31.790Z,9.23
2018-05-18T06:48:00.018Z,8.63
2018-05-18T06:50:28.238Z,8.00
2018-05-18T06:52:56.464Z,8.87
2018-05-18T06:55:25.465Z,8.57
2018-05-18T06:57:54.517Z,9.13
2018-05-18T07:00:22.713Z,8.60
2018-05-18T07:02:50.979Z,10.27
2018-05-18T07:05:20.122Z,8.40
2018-05-18T07:07:48.346Z,9.73
2018-05-18T07:10:17.344Z,9.60
2018-05-18T07:12:45.572Z,10.77
2018-05-18T07:15:13.815Z,8.90
2018-05-18T07:17:42.065Z,8.87
2018-05-18T07:20:10.302Z,8.00
2018-05-18T07:22:38.533Z,9.47
2018-05-18T07:25:06.753Z,7.27
2018-05-18T07:27:34.988Z,9.00
2018-05-18T07:30:03.230Z,8.70
2018-05-18T07:32:31.521Z,5.87
2018-05-18T07:34:59.740Z,9.27
2018-05-18T07:37:28.739Z,9.67
2018-05-18T07:39:57.740Z,8.53
2018-05-18T07:42:26.725Z,8.50
2018-05-18T07:44:56.449Z,9.83
2018-05-18T07:47:24.677Z,8.93
2018-05-18T07:49:52.924Z,10.13
2018-05-18T07:52:21.168Z,9.10
2018-05-18T07:54:49.417Z,9.10
2018-05-18T07:57:17.651Z,9.33
2018-05-18T07:59:45.878Z,9.80
2018-05-18T08:02:14.138Z,8.87
2018-05-18T08:04:43.170Z,8.40
2018-05-18T08:07:11.422Z,9.87
2018-05-18T08:09:39.652Z,9.43
2018-05-18T08:12:07.911Z,9.40
2018-05-18T08:14:36.126Z,9.43
2018-05-18T08:17:04.369Z,9.83
2018-05-18T08:19:32.586Z,8.57
2018-05-18T08:22:01.096Z,8.23
2018-05-18T08:24:29.308Z,8.47
2018-05-18T08:27:10.267Z,8.80
2018-05-18T08:29:38.501Z,9.47
2018-05-18T08:32:06.719Z,8.37
2018-05-18T08:34:34.961Z,9.30
2018-05-18T08:37:03.995Z,9.00
2018-05-18T08:39:32.216Z,8.93
2018-05-18T08:42:00.446Z,9.23
2018-05-18T08:44:29.467Z,8.53
2018-05-18T08:46:58.433Z,7.37
2018-05-18T08:49:26.659Z,6.90
2018-05-18T08:51:54.941Z,6.40
2018-05-18T08:54:23.163Z,7.77
2018-05-18T08:56:51.385Z,8.27
2018-05-18T08:59:19.701Z,8.40
2018-05-18T09:01:48.734Z,8.53
2018-05-18T09:04:16.993Z,8.20
2018-05-18T09:06:46.024Z,8.03
2018-05-18T09:09:14.276Z,7.33
2018-05-18T09:11:43.296Z,4.97
2018-05-18T09:14:12.683Z,6.83
2018-05-18T09:16:40.902Z,6.93
2018-05-18T09:19:09.902Z,6.73
2018-05-18T09:21:38.914Z,5.80
2018-05-18T09:24:07.923Z,7.20
2018-05-18T09:26:36.906Z,7.90
2018-05-18T09:29:05.117Z,7.53
2018-05-18T09:31:34.115Z,7.30
2018-05-18T09:34:03.267Z,8.07
2018-05-18T09:36:31.374Z,7.37
2018-05-18T09:38:59.633Z,7.40
2018-05-18T09:41:27.857Z,7.97
2018-05-18T09:43:56.081Z,8.00
2018-05-18T09:46:24.303Z,6.10
2018-05-18T09:48:52.641Z,8.17
2018-05-18T09:51:20.901Z,8.30
2018-05-18T09:53:49.243Z,8.03
2018-05-18T09:56:17.484Z,7.57
2018-05-18T09:58:45.732Z,8.07
2018-05-18T10:01:14.832Z,9.00
2018-05-18T10:03:43.812Z,7.40
2018-05-18T10:06:12.848Z,7.63
2018-05-18T10:08:41.101Z,7.30
2018-05-18T10:11:09.957Z,11.27
2018-05-18T10:13:38.198Z,7.53
2018-05-18T10:16:07.196Z,7.13
2018-05-18T10:18:37.152Z,7.13
2018-05-18T10:21:05.376Z,6.73
2018-05-18T10:23:33.628Z,6.90
2018-05-18T10:26:02.688Z,6.30
2018-05-18T10:28:30.913Z,6.37
2018-05-18T10:30:59.904Z,6.67
2018-05-18T10:33:28.925Z,7.17
2018-05-18T10:35:57.909Z,7.57
2018-05-18T10:38:26.241Z,8.70
2018-05-18T10:40:54.459Z,7.40
2018-05-18T10:43:22.692Z,8.20
2018-05-18T10:45:51.722Z,7.53
2018-05-18T10:48:19.965Z,7.93
2018-05-18T10:50:48.189Z,7.93
2018-05-18T10:53:16.486Z,7.90
2018-05-18T10:55:44.734Z,7.70
2018-05-18T10:58:14.494Z,7.07
2018-05-18T11:00:42.796Z,8.27
2018-05-18T11:03:11.081Z,10.07
2018-05-18T11:05:39.637Z,8.10
2018-05-18T11:08:07.941Z,9.93
2018-05-18T11:10:36.924Z,8.60
2018-05-18T11:13:05.151Z,9.33
2018-05-18T11:15:33.373Z,9.07
2018-05-18T11:18:01.606Z,8.43
2018-05-18T11:20:29.892Z,8.30
2018-05-18T11:22:58.897Z,9.70
2018-05-18T11:25:27.193Z,9.43
2018-05-18T11:27:56.217Z,9.83
2018-05-18T11:30:25.197Z,6.13
2018-05-18T11:32:53.416Z,5.90
2018-05-18T11:35:21.659Z,8.87
2018-05-18T11:37:49.861Z,8.60
2018-05-18T11:40:18.098Z,8.30
2018-05-18T11:42:46.456Z,4.50
2018-05-18T11:45:15.566Z,8.80
2018-05-18T11:47:44.686Z,8.90
2018-05-18T11:50:12.920Z,7.63
2018-05-18T11:52:42.208Z,7.80
2018-05-18T11:55:10.450Z,7.87
2018-05-18T11:57:38.759Z,6.90
2018-05-18T12:00:07.758Z,9.30
2018-05-18T12:02:36.753Z,8.60
2018-05-18T12:05:04.997Z,8.10
2018-05-18T12:07:33.237Z,10.00
2018-05-18T12:10:02.256Z,9.67
2018-05-18T12:12:30.494Z,6.10
2018-05-18T12:14:58.961Z,6.93
2018-05-18T12:17:27.195Z,7.10
2018-05-18T12:19:55.473Z,7.70
2018-05-18T12:22:23.744Z,9.27
2018-05-18T12:24:52.033Z,8.13
2018-05-18T12:27:20.311Z,7.97
2018-05-18T12:29:49.660Z,8.37
2018-05-18T12:32:17.917Z,8.43
2018-05-18T12:34:46.187Z,8.57
2018-05-18T12:37:14.425Z,7.43
2018-05-18T12:39:42.673Z,7.37
2018-05-18T12:42:10.901Z,7.70
2018-05-18T12:44:39.168Z,5.17
2018-05-18T12:47:07.380Z,7.27
2018-05-18T12:49:35.585Z,7.97
2018-05-18T12:52:04.613Z,7.07
2018-05-18T12:54:32.873Z,7.20
2018-05-18T12:57:01.149Z,7.87
2018-05-18T12:59:29.462Z,8.00
2018-05-18T13:01:58.294Z,8.33
2018-05-18T13:04:26.510Z,8.53
2018-05-18T13:06:54.758Z,8.87
2018-05-18T13:09:23.735Z,8.53
2018-05-18T13:11:51.975Z,8.30
2018-05-18T13:14:20.188Z,9.13
2018-05-18T13:16:48.428Z,8.70
2018-05-18T13:19:16.658Z,8.60
2018-05-18T13:21:44.896Z,8.97
2018-05-18T13:24:13.117Z,7.13
2018-05-18T13:26:41.374Z,8.03
2018-05-18T13:29:09.618Z,7.97
2018-05-18T13:31:37.850Z,6.70
2018-05-18T13:34:06.870Z,9.33
2018-05-18T13:36:35.197Z,8.30
2018-05-18T13:39:03.423Z,8.40
2018-05-18T13:41:32.417Z,9.20
2018-05-18T13:44:00.642Z,7.40
2018-05-18T13:46:28.898Z,7.77
2018-05-18T13:48:57.899Z,7.30
2018-05-18T13:51:26.884Z,6.00
2018-05-18T13:53:55.177Z,7.27
2018-05-18T13:56:23.407Z,7.13
2018-05-18T13:58:51.654Z,7.33
2018-05-18T14:01:19.938Z,6.93
2018-05-18T14:03:48.156Z,7.57
2018-05-18T14:06:17.166Z,7.33
2018-05-18T14:08:45.394Z,7.97
2018-05-18T14:11:13.626Z,8.60
2018-05-18T14:13:42.629Z,7.80
2018-05-18T14:16:11.622Z,7.37
2018-05-18T14:18:39.933Z,8.47
2018-05-18T14:21:08.135Z,9.13
2018-05-18T14:23:36.362Z,9.93
2018-05-18T14:26:04.609Z,9.27
2018-05-18T14:28:33.617Z,8.57
2018-05-18T14:31:01.852Z,7.90
2018-05-18T14:33:30.080Z,7.63
2018-05-18T14:35:59.082Z,7.70
2018-05-18T14:38:28.083Z,7.70
2018-05-18T14:40:57.094Z,6.00
2018-05-18T14:43:26.087Z,7.37
2018-05-18T14:45:54.333Z,8.20
2018-05-18T14:48:22.561Z,8.07
2018-05-18T14:50:50.774Z,8.27
2018-05-18T14:53:19.822Z,8.03
2018-05-18T14:55:48.015Z,7.90
2018-05-18T14:58:17.037Z,8.93
2018-05-18T15:00:45.261Z,8.23
2018-05-18T15:03:14.251Z,7.70
2018-05-18T15:05:43.322Z,8.10
2018-05-18T15:08:12.258Z,8.33
2018-05-18T15:10:41.358Z,8.40
2018-05-18T15:13:09.633Z,8.20
2018-05-18T15:15:37.886Z,7.53
2018-05-18T15:18:06.113Z,7.70
2018-05-18T15:20:34.346Z,8.47
2018-05-18T15:23:03.772Z,8.93
2018-05-18T15:25:32.729Z,7.53
2018-05-18T15:28:00.949Z,9.13
2018-05-18T15:30:29.176Z,8.80
2018-05-18T15:32:57.405Z,6.93
2018-05-18T15:35:26.498Z,8.20
2018-05-18T15:37:54.680Z,7.87
2018-05-18T15:40:22.901Z,8.20
2018-05-18T15:42:51.909Z,9.17
2018-05-18T15:45:20.906Z,9.63
2018-05-18T15:47:49.928Z,10.20
2018-05-18T15:50:18.908Z,8.63
2018-05-18T15:52:47.126Z,7.53
2018-05-18T15:55:15.358Z,6.97
2018-05-18T15:57:43.630Z,7.50
2018-05-18T16:00:11.884Z,7.57
2018-05-18T16:02:40.126Z,7.80
2018-05-18T16:05:08.357Z,7.87
2018-05-18T16:07:38.163Z,7.67
2018-05-18T16:10:06.429Z,7.90
2018-05-18T16:12:34.706Z,8.00
2018-05-18T16:15:02.971Z,7.70
2018-05-18T16:17:31.234Z,8.13
2018-05-18T16:20:00.221Z,7.10
2018-05-18T16:22:28.454Z,11.60
2018-05-18T16:24:56.680Z,8.50
2018-05-18T16:27:24.899Z,8.27
2018-05-18T16:29:53.889Z,8.43
2018-05-18T16:32:22.132Z,5.67
2018-05-18T16:34:50.354Z,5.57
2018-05-18T16:37:19.397Z,5.60
2018-05-18T16:39:47.624Z,8.10
2018-05-18T16:42:15.860Z,8.50
2018-05-18T16:44:44.845Z,8.57
2018-05-18T16:47:14.579Z,7.70
2018-05-18T16:49:42.805Z,8.33
2018-05-18T16:52:11.873Z,7.70
2018-05-18T16:54:40.130Z,7.90
2018-05-18T16:57:08.361Z,8.47
2018-05-18T16:59:37.350Z,8.27
2018-05-18T17:02:06.382Z,8.03
2018-05-18T17:04:35.392Z,10.03
2018-05-18T17:07:03.639Z,9.03
2018-05-18T17:09:31.857Z,4.53
2018-05-18T17:12:00.906Z,7.60
2018-05-18T17:14:29.238Z,7.83
2018-05-18T17:16:57.425Z,8.40
2018-05-18T17:19:25.662Z,6.13
2018-05-18T17:21:53.917Z,7.57
2018-05-18T17:24:22.138Z,8.73
2018-05-18T17:26:50.356Z,7.87
2018-05-18T17:29:18.589Z,7.83
2018-05-18T17:31:47.578Z,8.37
2018-05-18T17:34:15.801Z,8.03
2018-05-18T17:36:44.027Z,7.23
2018-05-18T17:39:12.250Z,4.30
2018-05-18T17:41:40.477Z,6.23
2018-05-18T17:44:08.718Z,6.53
2018-05-18T17:46:36.943Z,7.33
2018-05-18T17:49:05.161Z,8.57
2018-05-18T17:51:33.486Z,8.27
2018-05-18T17:54:01.701Z,5.57
2018-05-18T17:56:30.680Z,8.40
2018-05-18T17:58:58.916Z,8.00
2018-05-18T18:01:27.195Z,7.73
2018-05-18T18:03:56.229Z,8.00
2018-05-18T18:06:24.453Z,7.23
2018-05-18T18:08:52.680Z,8.43
2018-05-18T18:11:20.921Z,7.80
2018-05-18T18:13:49.144Z,7.37
2018-05-18T18:16:18.120Z,6.97
2018-05-18T18:18:46.349Z,5.30
2018-05-18T18:21:14.560Z,8.63
2018-05-18T18:23:42.837Z,8.83
2018-05-18T18:26:11.090Z,7.30
2018-05-18T18:28:40.138Z,7.23
2018-05-18T18:31:08.290Z,6.97
2018-05-18T18:33:37.288Z,5.40
2018-05-18T18:36:06.267Z,4.50
2018-05-18T18:38:34.499Z,7.37
2018-05-18T18:41:02.750Z,5.60
2018-05-18T18:43:30.961Z,4.00
2018-05-18T18:46:00.036Z,7.73
2018-05-18T18:48:28.348Z,7.77
2018-05-18T18:50:57.341Z,3.93
2018-05-18T18:53:25.636Z,4.40
2018-05-18T18:55:53.885Z,6.93
2018-05-18T18:58:22.102Z,7.03
2018-05-18T19:00:50.317Z,7.20
2018-05-18T19:03:19.311Z,6.53
2018-05-18T19:05:47.518Z,4.77
2018-05-18T19:08:15.798Z,7.73
2018-05-18T19:10:43.965Z,7.53
2018-05-18T19:13:12.195Z,8.00
2018-05-18T19:15:40.425Z,7.93
2018-05-18T19:18:08.658Z,6.53
2018-05-18T19:20:37.108Z,7.67
2018-05-18T19:23:06.086Z,6.83
2018-05-18T19:25:34.338Z,7.43
2018-05-18T19:28:03.325Z,7.60
2018-05-18T19:30:32.340Z,7.17
2018-05-18T19:33:00.564Z,7.27
2018-05-18T19:35:29.553Z,8.27
2018-05-18T19:37:57.821Z,7.80
2018-05-18T19:40:26.830Z,7.90
2018-05-18T19:42:55.820Z,8.10
2018-05-18T19:45:24.039Z,7.57
2018-05-18T19:47:52.273Z,7.97
2018-05-18T19:50:20.495Z,8.13
2018-05-18T19:52:49.484Z,7.67
2018-05-18T19:55:17.704Z,7.07
2018-05-18T19:57:45.927Z,7.20
2018-05-18T20:00:14.210Z,4.40
2018-05-18T20:02:43.182Z,6.93
2018-05-18T20:05:12.181Z,7.37
2018-05-18T20:07:41.184Z,7.07
2018-05-18T20:10:09.408Z,7.27
2018-05-18T20:12:37.679Z,7.57
2018-05-18T20:15:06.845Z,8.47
2018-05-18T20:17:35.056Z,7.77
2018-05-18T20:20:04.057Z,8.63
2018-05-18T20:22:33.064Z,8.00
2018-05-18T20:25:02.153Z,7.20
2018-05-18T20:27:30.352Z,7.47
2018-05-18T20:29:58.586Z,8.57
2018-05-18T20:32:26.818Z,7.37
2018-05-18T20:34:55.048Z,7.17
2018-05-18T20:37:23.292Z,7.83
2018-05-18T20:39:51.508Z,7.30
2018-05-18T20:42:20.496Z,7.53
2018-05-18T20:44:48.725Z,7.73
2018-05-18T20:47:16.941Z,8.03
2018-05-18T20:49:45.169Z,7.03
2018-05-18T20:52:14.179Z,7.30
2018-05-18T20:54:43.175Z,7.47
2018-05-18T20:57:11.395Z,6.87
2018-05-18T20:59:39.618Z,6.80
2018-05-18T21:02:07.842Z,7.63
2018-05-18T21:04:36.833Z,7.33
2018-05-18T21:07:05.070Z,7.27
2018-05-18T21:09:33.319Z,6.93
2018-05-18T21:12:01.539Z,8.10
2018-05-18T21:14:29.753Z,7.53
2018-05-18T21:16:57.998Z,6.80
2018-05-18T21:19:26.989Z,7.40
2018-05-18T21:21:55.208Z,6.97
2018-05-18T21:24:23.421Z,6.33
2018-05-18T21:26:51.644Z,7.07
2018-05-18T21:29:19.947Z,8.23
2018-05-18T21:31:48.953Z,7.43
2018-05-18T21:34:17.942Z,7.03
2018-05-18T21:36:46.158Z,7.30
2018-05-18T21:39:15.148Z,7.17
2018-05-18T21:41:43.378Z,6.97
2018-05-18T21:44:11.592Z,6.97
2018-05-18T21:46:39.824Z,7.80
2018-05-18T21:49:08.824Z,7.43
2018-05-18T21:51:37.813Z,6.93
2018-05-18T21:54:06.053Z,8.00
2018-05-18T21:56:34.305Z,7.27
2018-05-18T21:59:04.342Z,6.80
2018-05-18T22:01:33.422Z,7.27
2018-05-18T22:04:01.603Z,7.30
2018-05-18T22:06:29.858Z,6.87
2018-05-18T22:08:58.810Z,7.23
2018-05-18T22:11:27.038Z,7.60
2018-05-18T22:13:55.292Z,7.17
2018-05-18T22:16:23.493Z,7.10
2018-05-18T22:18:52.478Z,6.30
2018-05-18T22:21:20.711Z,6.60
2018-05-18T22:23:48.932Z,7.10
2018-05-18T22:26:17.153Z,6.23
2018-05-18T22:28:45.381Z,7.63
2018-05-18T22:31:13.618Z,6.87
2018-05-18T22:33:41.833Z,7.10
2018-05-18T22:36:10.057Z,7.03
2018-05-18T22:38:38.386Z,7.33
2018-05-18T22:41:06.609Z,6.87
2018-05-18T22:43:34.850Z,6.60
2018-05-18T22:46:03.084Z,6.77
2018-05-18T22:48:31.324Z,6.63
2018-05-18T22:50:59.541Z,6.23
2018-05-18T22:53:28.537Z,7.07
2018-05-18T22:55:57.525Z,6.33
2018-05-18T22:58:25.753Z,6.13
2018-05-18T23:00:53.965Z,7.20
2018-05-18T23:03:22.203Z,6.63
2018-05-18T23:05:50.415Z,7.03
2018-05-18T23:08:18.654Z,6.50
2018-05-18T23:10:46.872Z,7.53
2018-05-18T23:13:15.862Z,6.43
2018-05-18T23:15:44.089Z,6.10
2018-05-18T23:18:12.316Z,6.97
2018-05-18T23:20:40.556Z,6.73
2018-05-18T23:23:09.553Z,6.87
2018-05-18T23:25:38.633Z,6.87
2018-05-18T23:28:07.660Z,6.67
2018-05-18T23:30:36.645Z,5.80
2018-05-18T23:33:06.407Z,6.53
2018-05-18T23:35:35.475Z,7.07
2018-05-18T23:38:03.714Z,6.43
2018-05-18T23:40:31.929Z,7.50
2018-05-18T23:43:00.161Z,7.03
2018-05-18T23:45:29.156Z,7.10
2018-05-18T23:47:57.382Z,7.37
2018-05-18T23:50:25.621Z,5.80
2018-05-18T23:52:53.846Z,5.83
2018-05-18T23:55:22.069Z,5.93
2018-05-18T23:57:50.295Z,5.60
